sensor_id;sensor_type;location;lat;lon;timestamp;P1;durP1;ratioP1;P2;durP2;ratioP2
39540;SDS011;25219;52.244;21.006;2023-04-01T00:00:18;23.30;;;11.75;;
39540;SDS011;25219;52.244;21.006;2023-04-01T00:02:44;19.83;;;11.10;;
39540;SDS011;25219;52.244;21.006;2023-04-01T00:05:09;23.27;;;10.63;;
39540;SDS011;25219;52.244;21.006;2023-04-01T00:07:37;20.30;;;11.38;;
39540;SDS011;25219;52.244;21.006;2023-04-01T00:10:03;19.88;;;11.52;;
39540;SDS011;25219;52.244;21.006;2023-04-01T00:12:29;17.98;;;11.55;;
39540;SDS011;25219;52.244;21.006;2023-04-01T00:14:54;20.60;;;11.52;;
39540;SDS011;25219;52.244;21.006;2023-04-01T00:17:20;20.95;;;11.85;;
39540;SDS011;25219;52.244;21.006;2023-04-01T00:19:46;19.50;;;11.63;;
39540;SDS011;25219;52.244;21.006;2023-04-01T00:22:11;20.33;;;11.88;;
39540;SDS011;25219;52.244;21.006;2023-04-01T00:24:37;24.17;;;12.32;;
39540;SDS011;25219;52.244;21.006;2023-04-01T00:27:02;17.48;;;12.05;;
39540;SDS011;25219;52.244;21.006;2023-04-01T00:29:28;18.70;;;12.23;;
39540;SDS011;25219;52.244;21.006;2023-04-01T00:31:56;19.95;;;11.50;;
39540;SDS011;25219;52.244;21.006;2023-04-01T00:34:21;18.27;;;12.45;;
39540;SDS011;25219;52.244;21.006;2023-04-01T00:36:46;17.90;;;12.02;;
39540;SDS011;25219;52.244;21.006;2023-04-01T00:39:12;19.95;;;12.40;;
39540;SDS011;25219;52.244;21.006;2023-04-01T00:41:37;20.45;;;13.48;;
39540;SDS011;25219;52.244;21.006;2023-04-01T00:44:14;18.65;;;11.25;;
39540;SDS011;25219;52.244;21.006;2023-04-01T00:46:40;20.13;;;11.70;;
39540;SDS011;25219;52.244;21.006;2023-04-01T00:49:05;22.85;;;12.75;;
39540;SDS011;25219;52.244;21.006;2023-04-01T00:51:30;22.92;;;13.05;;
39540;SDS011;25219;52.244;21.006;2023-04-01T00:53:56;20.50;;;12.48;;
39540;SDS011;25219;52.244;21.006;2023-04-01T00:56:24;18.25;;;12.13;;
39540;SDS011;25219;52.244;21.006;2023-04-01T00:58:54;21.77;;;11.77;;
39540;SDS011;25219;52.244;21.006;2023-04-01T01:01:21;20.02;;;12.50;;
39540;SDS011;25219;52.244;21.006;2023-04-01T01:03:47;17.27;;;11.32;;
39540;SDS011;25219;52.244;21.006;2023-04-01T01:11:16;23.45;;;11.93;;
39540;SDS011;25219;52.244;21.006;2023-04-01T01:16:47;20.85;;;11.98;;
39540;SDS011;25219;52.244;21.006;2023-04-01T01:22:10;18.13;;;10.82;;
39540;SDS011;25219;52.244;21.006;2023-04-01T01:27:20;17.90;;;11.23;;
39540;SDS011;25219;52.244;21.006;2023-04-01T01:30:09;17.40;;;11.38;;
39540;SDS011;25219;52.244;21.006;2023-04-01T01:35:24;20.40;;;11.95;;
39540;SDS011;25219;52.244;21.006;2023-04-01T01:37:53;18.83;;;11.40;;
39540;SDS011;25219;52.244;21.006;2023-04-01T01:40:19;22.52;;;13.50;;
39540;SDS011;25219;52.244;21.006;2023-04-01T01:42:50;18.50;;;12.20;;
39540;SDS011;25219;52.244;21.006;2023-04-01T01:45:18;20.67;;;13.35;;
39540;SDS011;25219;52.244;21.006;2023-04-01T01:47:44;20.77;;;13.70;;
39540;SDS011;25219;52.244;21.006;2023-04-01T01:50:11;24.98;;;14.80;;
39540;SDS011;25219;52.244;21.006;2023-04-01T01:52:36;22.27;;;14.02;;
39540;SDS011;25219;52.244;21.006;2023-04-01T01:55:02;22.10;;;14.05;;
39540;SDS011;25219;52.244;21.006;2023-04-01T01:57:29;21.98;;;13.60;;
39540;SDS011;25219;52.244;21.006;2023-04-01T01:59:58;21.70;;;14.00;;
39540;SDS011;25219;52.244;21.006;2023-04-01T02:02:24;26.33;;;13.70;;
39540;SDS011;25219;52.244;21.006;2023-04-01T02:04:50;22.90;;;14.48;;
39540;SDS011;25219;52.244;21.006;2023-04-01T02:07:18;24.10;;;13.82;;
39540;SDS011;25219;52.244;21.006;2023-04-01T02:09:45;23.13;;;15.27;;
39540;SDS011;25219;52.244;21.006;2023-04-01T02:12:12;26.25;;;14.10;;
39540;SDS011;25219;52.244;21.006;2023-04-01T02:17:08;23.35;;;14.07;;
39540;SDS011;25219;52.244;21.006;2023-04-01T02:19:56;25.38;;;15.45;;
39540;SDS011;25219;52.244;21.006;2023-04-01T02:22:29;26.67;;;15.45;;
39540;SDS011;25219;52.244;21.006;2023-04-01T02:25:06;28.25;;;16.23;;
39540;SDS011;25219;52.244;21.006;2023-04-01T02:27:32;24.90;;;15.98;;
39540;SDS011;25219;52.244;21.006;2023-04-01T02:29:57;29.20;;;16.98;;
39540;SDS011;25219;52.244;21.006;2023-04-01T02:32:23;25.65;;;16.55;;
39540;SDS011;25219;52.244;21.006;2023-04-01T02:34:49;27.88;;;17.42;;
39540;SDS011;25219;52.244;21.006;2023-04-01T02:37:15;27.92;;;16.60;;
39540;SDS011;25219;52.244;21.006;2023-04-01T02:39:40;27.92;;;17.98;;
39540;SDS011;25219;52.244;21.006;2023-04-01T02:42:07;29.73;;;17.92;;
39540;SDS011;25219;52.244;21.006;2023-04-01T02:44:33;30.92;;;17.75;;
39540;SDS011;25219;52.244;21.006;2023-04-01T02:46:58;30.60;;;17.33;;
39540;SDS011;25219;52.244;21.006;2023-04-01T02:49:23;26.55;;;16.67;;
39540;SDS011;25219;52.244;21.006;2023-04-01T02:51:48;26.53;;;16.70;;
39540;SDS011;25219;52.244;21.006;2023-04-01T02:54:14;26.67;;;14.63;;
39540;SDS011;25219;52.244;21.006;2023-04-01T02:56:39;22.85;;;14.25;;
39540;SDS011;25219;52.244;21.006;2023-04-01T02:59:04;25.10;;;15.45;;
39540;SDS011;25219;52.244;21.006;2023-04-01T03:01:30;24.05;;;15.50;;
39540;SDS011;25219;52.244;21.006;2023-04-01T03:03:55;27.77;;;16.52;;
39540;SDS011;25219;52.244;21.006;2023-04-01T03:06:20;21.48;;;14.90;;
39540;SDS011;25219;52.244;21.006;2023-04-01T03:08:45;27.00;;;15.70;;
39540;SDS011;25219;52.244;21.006;2023-04-01T03:11:11;24.42;;;14.57;;
39540;SDS011;25219;52.244;21.006;2023-04-01T03:13:36;24.58;;;15.30;;
39540;SDS011;25219;52.244;21.006;2023-04-01T03:16:02;24.52;;;15.13;;
39540;SDS011;25219;52.244;21.006;2023-04-01T03:18:27;27.25;;;17.10;;
39540;SDS011;25219;52.244;21.006;2023-04-01T03:20:52;25.88;;;16.98;;
39540;SDS011;25219;52.244;21.006;2023-04-01T03:23:18;28.42;;;16.27;;
39540;SDS011;25219;52.244;21.006;2023-04-01T03:25:45;27.77;;;17.15;;
39540;SDS011;25219;52.244;21.006;2023-04-01T03:28:11;28.52;;;16.88;;
39540;SDS011;25219;52.244;21.006;2023-04-01T03:30:37;28.45;;;17.30;;
39540;SDS011;25219;52.244;21.006;2023-04-01T03:33:02;26.95;;;16.48;;
39540;SDS011;25219;52.244;21.006;2023-04-01T03:35:28;25.05;;;16.25;;
39540;SDS011;25219;52.244;21.006;2023-04-01T03:37:53;24.58;;;15.95;;
39540;SDS011;25219;52.244;21.006;2023-04-01T03:40:19;23.23;;;14.13;;
39540;SDS011;25219;52.244;21.006;2023-04-01T03:42:44;24.23;;;13.73;;
39540;SDS011;25219;52.244;21.006;2023-04-01T03:45:09;24.65;;;15.05;;
39540;SDS011;25219;52.244;21.006;2023-04-01T03:47:36;25.05;;;13.38;;
39540;SDS011;25219;52.244;21.006;2023-04-01T03:50:02;23.48;;;14.57;;
39540;SDS011;25219;52.244;21.006;2023-04-01T03:52:27;22.10;;;13.43;;
39540;SDS011;25219;52.244;21.006;2023-04-01T03:54:52;20.80;;;13.50;;
39540;SDS011;25219;52.244;21.006;2023-04-01T03:57:17;21.05;;;13.15;;
39540;SDS011;25219;52.244;21.006;2023-04-01T03:59:43;21.07;;;13.63;;
39540;SDS011;25219;52.244;21.006;2023-04-01T04:02:08;20.23;;;13.90;;
39540;SDS011;25219;52.244;21.006;2023-04-01T04:04:33;22.73;;;14.45;;
39540;SDS011;25219;52.244;21.006;2023-04-01T04:06:58;20.77;;;14.07;;
39540;SDS011;25219;52.244;21.006;2023-04-01T04:09:24;23.40;;;12.60;;
39540;SDS011;25219;52.244;21.006;2023-04-01T04:11:49;24.27;;;13.63;;
39540;SDS011;25219;52.244;21.006;2023-04-01T04:14:14;24.88;;;14.85;;
39540;SDS011;25219;52.244;21.006;2023-04-01T04:16:40;20.17;;;13.65;;
39540;SDS011;25219;52.244;21.006;2023-04-01T04:19:05;25.25;;;13.05;;
39540;SDS011;25219;52.244;21.006;2023-04-01T04:21:31;22.02;;;14.10;;
39540;SDS011;25219;52.244;21.006;2023-04-01T04:23:56;24.73;;;13.07;;
39540;SDS011;25219;52.244;21.006;2023-04-01T04:26:21;19.57;;;12.93;;
39540;SDS011;25219;52.244;21.006;2023-04-01T04:28:46;19.50;;;11.85;;
39540;SDS011;25219;52.244;21.006;2023-04-01T04:31:17;20.95;;;13.57;;
39540;SDS011;25219;52.244;21.006;2023-04-01T04:33:43;21.70;;;12.15;;
39540;SDS011;25219;52.244;21.006;2023-04-01T04:36:08;18.83;;;12.27;;
39540;SDS011;25219;52.244;21.006;2023-04-01T04:38:34;19.23;;;11.55;;
39540;SDS011;25219;52.244;21.006;2023-04-01T04:40:59;17.30;;;11.88;;
39540;SDS011;25219;52.244;21.006;2023-04-01T04:43:24;15.65;;;10.60;;
39540;SDS011;25219;52.244;21.006;2023-04-01T04:45:50;17.33;;;9.63;;
39540;SDS011;25219;52.244;21.006;2023-04-01T04:48:16;18.63;;;10.50;;
39540;SDS011;25219;52.244;21.006;2023-04-01T04:50:44;16.65;;;10.90;;
39540;SDS011;25219;52.244;21.006;2023-04-01T04:53:12;14.25;;;10.23;;
39540;SDS011;25219;52.244;21.006;2023-04-01T04:55:42;17.08;;;10.18;;
39540;SDS011;25219;52.244;21.006;2023-04-01T04:58:07;15.02;;;9.70;;
39540;SDS011;25219;52.244;21.006;2023-04-01T05:00:32;15.93;;;9.40;;
39540;SDS011;25219;52.244;21.006;2023-04-01T05:02:57;13.97;;;9.73;;
39540;SDS011;25219;52.244;21.006;2023-04-01T05:05:23;16.40;;;9.43;;
39540;SDS011;25219;52.244;21.006;2023-04-01T05:07:48;15.05;;;9.40;;
39540;SDS011;25219;52.244;21.006;2023-04-01T05:10:13;13.38;;;9.13;;
39540;SDS011;25219;52.244;21.006;2023-04-01T05:12:38;13.23;;;9.27;;
39540;SDS011;25219;52.244;21.006;2023-04-01T05:15:06;13.95;;;9.30;;
39540;SDS011;25219;52.244;21.006;2023-04-01T05:17:32;12.60;;;8.55;;
39540;SDS011;25219;52.244;21.006;2023-04-01T05:19:57;15.18;;;8.27;;
39540;SDS011;25219;52.244;21.006;2023-04-01T05:22:23;11.48;;;7.93;;
39540;SDS011;25219;52.244;21.006;2023-04-01T05:24:48;13.13;;;8.35;;
39540;SDS011;25219;52.244;21.006;2023-04-01T05:27:14;11.60;;;7.63;;
39540;SDS011;25219;52.244;21.006;2023-04-01T05:29:39;11.82;;;7.38;;
39540;SDS011;25219;52.244;21.006;2023-04-01T05:32:04;11.67;;;7.47;;
39540;SDS011;25219;52.244;21.006;2023-04-01T05:34:29;13.70;;;7.97;;
39540;SDS011;25219;52.244;21.006;2023-04-01T05:36:55;11.45;;;7.15;;
39540;SDS011;25219;52.244;21.006;2023-04-01T05:39:20;13.65;;;8.45;;
39540;SDS011;25219;52.244;21.006;2023-04-01T05:41:45;9.40;;;7.03;;
39540;SDS011;25219;52.244;21.006;2023-04-01T05:44:11;10.75;;;7.40;;
39540;SDS011;25219;52.244;21.006;2023-04-01T05:46:36;10.10;;;6.65;;
39540;SDS011;25219;52.244;21.006;2023-04-01T05:49:01;13.73;;;7.30;;
39540;SDS011;25219;52.244;21.006;2023-04-01T05:51:27;11.02;;;7.60;;
39540;SDS011;25219;52.244;21.006;2023-04-01T05:53:52;12.93;;;7.57;;
39540;SDS011;25219;52.244;21.006;2023-04-01T05:56:17;11.33;;;7.67;;
39540;SDS011;25219;52.244;21.006;2023-04-01T05:58:42;11.68;;;6.75;;
39540;SDS011;25219;52.244;21.006;2023-04-01T06:01:10;9.97;;;7.00;;
39540;SDS011;25219;52.244;21.006;2023-04-01T06:03:35;10.32;;;7.40;;
39540;SDS011;25219;52.244;21.006;2023-04-01T06:06:01;9.02;;;6.57;;
39540;SDS011;25219;52.244;21.006;2023-04-01T06:08:26;10.20;;;6.63;;
39540;SDS011;25219;52.244;21.006;2023-04-01T06:19:12;9.68;;;6.65;;
39540;SDS011;25219;52.244;21.006;2023-04-01T06:29:46;8.80;;;6.07;;
39540;SDS011;25219;52.244;21.006;2023-04-01T06:34:51;10.23;;;7.05;;
39540;SDS011;25219;52.244;21.006;2023-04-01T06:55:02;10.40;;;7.32;;
39540;SDS011;25219;52.244;21.006;2023-04-01T06:57:32;10.88;;;7.68;;
39540;SDS011;25219;52.244;21.006;2023-04-01T06:59:59;9.55;;;6.80;;
39540;SDS011;25219;52.244;21.006;2023-04-01T07:04:56;8.00;;;5.82;;
39540;SDS011;25219;52.244;21.006;2023-04-01T07:07:29;9.32;;;4.90;;
39540;SDS011;25219;52.244;21.006;2023-04-01T07:09:56;7.38;;;5.10;;
39540;SDS011;25219;52.244;21.006;2023-04-01T07:15:02;9.15;;;5.40;;
39540;SDS011;25219;52.244;21.006;2023-04-01T07:17:30;7.45;;;4.53;;
39540;SDS011;25219;52.244;21.006;2023-04-01T07:20:09;5.80;;;4.05;;
39540;SDS011;25219;52.244;21.006;2023-04-01T07:22:43;6.40;;;4.20;;
39540;SDS011;25219;52.244;21.006;2023-04-01T07:25:14;6.07;;;4.43;;
39540;SDS011;25219;52.244;21.006;2023-04-01T07:27:41;7.72;;;5.70;;
39540;SDS011;25219;52.244;21.006;2023-04-01T07:30:12;9.10;;;7.05;;
39540;SDS011;25219;52.244;21.006;2023-04-01T07:32:40;10.30;;;7.80;;
39540;SDS011;25219;52.244;21.006;2023-04-01T07:35:09;15.02;;;10.30;;
39540;SDS011;25219;52.244;21.006;2023-04-01T07:57:27;16.33;;;12.55;;
39540;SDS011;25219;52.244;21.006;2023-04-01T08:04:51;17.77;;;12.97;;
39540;SDS011;25219;52.244;21.006;2023-04-01T08:07:30;17.80;;;13.05;;
39540;SDS011;25219;52.244;21.006;2023-04-01T08:10:04;21.58;;;13.90;;
39540;SDS011;25219;52.244;21.006;2023-04-01T08:20:16;14.95;;;10.88;;
39540;SDS011;25219;52.244;21.006;2023-04-01T08:22:55;14.98;;;10.52;;
39540;SDS011;25219;52.244;21.006;2023-04-01T08:25:24;16.23;;;10.65;;
39540;SDS011;25219;52.244;21.006;2023-04-01T08:28:33;15.88;;;11.63;;
39540;SDS011;25219;52.244;21.006;2023-04-01T08:30:42;17.02;;;11.88;;
39540;SDS011;25219;52.244;21.006;2023-04-01T08:33:25;14.55;;;10.25;;
39540;SDS011;25219;52.244;21.006;2023-04-01T08:38:18;14.23;;;8.98;;
39540;SDS011;25219;52.244;21.006;2023-04-01T08:43:30;11.95;;;8.32;;
39540;SDS011;25219;52.244;21.006;2023-04-01T09:01:35;5.40;;;4.20;;
39540;SDS011;25219;52.244;21.006;2023-04-01T09:11:44;7.65;;;4.63;;
39540;SDS011;25219;52.244;21.006;2023-04-01T09:35:23;10.15;;;5.68;;
39540;SDS011;25219;52.244;21.006;2023-04-01T09:45:40;6.68;;;4.90;;
39540;SDS011;25219;52.244;21.006;2023-04-01T09:51:02;5.03;;;3.75;;
39540;SDS011;25219;52.244;21.006;2023-04-01T09:53:42;5.10;;;3.67;;
39540;SDS011;25219;52.244;21.006;2023-04-01T09:56:23;7.82;;;4.10;;
39540;SDS011;25219;52.244;21.006;2023-04-01T10:37:16;5.65;;;3.25;;
39540;SDS011;25219;52.244;21.006;2023-04-01T10:47:16;5.35;;;3.53;;
39540;SDS011;25219;52.244;21.006;2023-04-01T10:55:31;6.50;;;3.88;;
39540;SDS011;25219;52.244;21.006;2023-04-01T10:58:16;5.28;;;3.63;;
39540;SDS011;25219;52.244;21.006;2023-04-01T11:34:57;8.30;;;4.72;;
39540;SDS011;25219;52.244;21.006;2023-04-01T11:42:46;10.80;;;4.63;;
39540;SDS011;25219;52.244;21.006;2023-04-01T11:45:19;5.63;;;4.25;;
39540;SDS011;25219;52.244;21.006;2023-04-01T11:50:24;7.95;;;5.65;;
39540;SDS011;25219;52.244;21.006;2023-04-01T11:57:56;5.50;;;3.90;;
39540;SDS011;25219;52.244;21.006;2023-04-01T12:08:12;5.95;;;4.05;;
39540;SDS011;25219;52.244;21.006;2023-04-01T12:19:11;3.53;;;2.50;;
39540;SDS011;25219;52.244;21.006;2023-04-01T12:31:51;2.03;;;1.63;;
39540;SDS011;25219;52.244;21.006;2023-04-01T12:47:27;2.20;;;1.95;;
39540;SDS011;25219;52.244;21.006;2023-04-01T13:16:26;3.60;;;1.60;;
39540;SDS011;25219;52.244;21.006;2023-04-01T13:23:55;3.40;;;2.13;;
39540;SDS011;25219;52.244;21.006;2023-04-01T13:34:14;2.92;;;1.70;;
39540;SDS011;25219;52.244;21.006;2023-04-01T13:44:37;8.02;;;2.65;;
39540;SDS011;25219;52.244;21.006;2023-04-01T13:57:48;2.10;;;1.77;;
39540;SDS011;25219;52.244;21.006;2023-04-01T14:00:25;1.90;;;1.67;;
39540;SDS011;25219;52.244;21.006;2023-04-01T14:07:59;3.58;;;1.80;;
39540;SDS011;25219;52.244;21.006;2023-04-01T14:13:10;3.55;;;2.28;;
39540;SDS011;25219;52.244;21.006;2023-04-01T14:28:31;2.40;;;1.80;;
39540;SDS011;25219;52.244;21.006;2023-04-01T14:33:47;1.52;;;1.17;;
39540;SDS011;25219;52.244;21.006;2023-04-01T14:49:22;1.90;;;1.73;;
39540;SDS011;25219;52.244;21.006;2023-04-01T14:51:49;2.78;;;2.47;;
39540;SDS011;25219;52.244;21.006;2023-04-01T14:54:21;2.42;;;1.67;;
39540;SDS011;25219;52.244;21.006;2023-04-01T14:59:39;1.75;;;1.10;;
39540;SDS011;25219;52.244;21.006;2023-04-01T15:05:14;1.67;;;1.20;;
39540;SDS011;25219;52.244;21.006;2023-04-01T15:18:03;2.10;;;1.50;;
39540;SDS011;25219;52.244;21.006;2023-04-01T15:23:13;2.25;;;1.60;;
39540;SDS011;25219;52.244;21.006;2023-04-01T15:30:49;2.30;;;1.60;;
39540;SDS011;25219;52.244;21.006;2023-04-01T15:35:50;1.40;;;1.25;;
39540;SDS011;25219;52.244;21.006;2023-04-01T15:38:26;1.58;;;1.27;;
39540;SDS011;25219;52.244;21.006;2023-04-01T16:13:59;3.38;;;1.77;;
39540;SDS011;25219;52.244;21.006;2023-04-01T16:16:36;2.58;;;1.83;;
39540;SDS011;25219;52.244;21.006;2023-04-01T16:22:03;5.10;;;2.00;;
39540;SDS011;25219;52.244;21.006;2023-04-01T16:24:47;3.85;;;1.70;;
39540;SDS011;25219;52.244;21.006;2023-04-01T16:27:33;3.03;;;2.20;;
39540;SDS011;25219;52.244;21.006;2023-04-01T16:35:23;18.25;;;7.03;;
39540;SDS011;25219;52.244;21.006;2023-04-01T16:37:53;11.45;;;5.47;;
39540;SDS011;25219;52.244;21.006;2023-04-01T16:48:07;2.22;;;1.33;;
39540;SDS011;25219;52.244;21.006;2023-04-01T16:58:21;1.27;;;1.10;;
39540;SDS011;25219;52.244;21.006;2023-04-01T17:00:48;1.70;;;1.20;;
39540;SDS011;25219;52.244;21.006;2023-04-01T17:03:27;1.35;;;1.20;;
39540;SDS011;25219;52.244;21.006;2023-04-01T17:11:19;2.00;;;1.38;;
39540;SDS011;25219;52.244;21.006;2023-04-01T17:16:35;4.28;;;2.72;;
39540;SDS011;25219;52.244;21.006;2023-04-01T17:19:08;2.47;;;1.65;;
39540;SDS011;25219;52.244;21.006;2023-04-01T17:21:49;2.03;;;1.60;;
39540;SDS011;25219;52.244;21.006;2023-04-01T17:27:05;4.43;;;1.98;;
39540;SDS011;25219;52.244;21.006;2023-04-01T17:29:46;2.67;;;2.00;;
39540;SDS011;25219;52.244;21.006;2023-04-01T17:32:36;3.80;;;2.50;;
39540;SDS011;25219;52.244;21.006;2023-04-01T17:35:15;3.53;;;2.60;;
39540;SDS011;25219;52.244;21.006;2023-04-01T17:37:51;4.00;;;2.40;;
39540;SDS011;25219;52.244;21.006;2023-04-01T17:43:01;4.70;;;3.13;;
39540;SDS011;25219;52.244;21.006;2023-04-01T17:56:13;8.10;;;6.32;;
39540;SDS011;25219;52.244;21.006;2023-04-01T17:58:44;12.15;;;7.40;;
39540;SDS011;25219;52.244;21.006;2023-04-01T18:06:21;8.23;;;6.67;;
39540;SDS011;25219;52.244;21.006;2023-04-01T18:08:59;10.27;;;7.85;;
39540;SDS011;25219;52.244;21.006;2023-04-01T18:12:30;10.93;;;7.22;;
39540;SDS011;25219;52.244;21.006;2023-04-01T18:19:23;12.48;;;7.68;;
39540;SDS011;25219;52.244;21.006;2023-04-01T18:21:51;14.85;;;10.25;;
39540;SDS011;25219;52.244;21.006;2023-04-01T18:26:45;15.38;;;10.00;;
39540;SDS011;25219;52.244;21.006;2023-04-01T18:29:24;13.20;;;9.68;;
39540;SDS011;25219;52.244;21.006;2023-04-01T18:31:52;15.18;;;11.02;;
39540;SDS011;25219;52.244;21.006;2023-04-01T18:36:53;12.00;;;8.98;;
39540;SDS011;25219;52.244;21.006;2023-04-01T18:39:37;9.95;;;7.43;;
39540;SDS011;25219;52.244;21.006;2023-04-01T18:42:16;9.60;;;7.43;;
39540;SDS011;25219;52.244;21.006;2023-04-01T18:52:23;11.65;;;7.95;;
39540;SDS011;25219;52.244;21.006;2023-04-01T18:57:15;9.02;;;6.55;;
39540;SDS011;25219;52.244;21.006;2023-04-01T18:59:52;11.68;;;7.07;;
39540;SDS011;25219;52.244;21.006;2023-04-01T19:05:04;11.05;;;7.68;;
39540;SDS011;25219;52.244;21.006;2023-04-01T19:15:44;15.10;;;9.63;;
39540;SDS011;25219;52.244;21.006;2023-04-01T19:25:53;12.75;;;9.05;;
39540;SDS011;25219;52.244;21.006;2023-04-01T19:35:52;9.10;;;6.75;;
39540;SDS011;25219;52.244;21.006;2023-04-01T19:51:34;8.68;;;5.72;;
39540;SDS011;25219;52.244;21.006;2023-04-01T19:56:39;16.10;;;9.93;;
39540;SDS011;25219;52.244;21.006;2023-04-01T20:04:50;8.95;;;6.07;;
39540;SDS011;25219;52.244;21.006;2023-04-01T20:10:02;7.18;;;5.07;;
39540;SDS011;25219;52.244;21.006;2023-04-01T20:18:15;13.10;;;8.00;;
39540;SDS011;25219;52.244;21.006;2023-04-01T20:20:41;14.65;;;10.05;;
39540;SDS011;25219;52.244;21.006;2023-04-01T20:23:21;15.52;;;12.27;;
39540;SDS011;25219;52.244;21.006;2023-04-01T20:25:52;18.77;;;12.85;;
39540;SDS011;25219;52.244;21.006;2023-04-01T20:36:06;14.93;;;10.73;;
39540;SDS011;25219;52.244;21.006;2023-04-01T20:44:12;11.20;;;7.88;;
39540;SDS011;25219;52.244;21.006;2023-04-01T20:51:46;7.70;;;5.18;;
39540;SDS011;25219;52.244;21.006;2023-04-01T20:54:26;8.73;;;5.10;;
39540;SDS011;25219;52.244;21.006;2023-04-01T20:59:45;9.27;;;5.35;;
39540;SDS011;25219;52.244;21.006;2023-04-01T21:12:49;14.48;;;10.98;;
39540;SDS011;25219;52.244;21.006;2023-04-01T21:17:56;17.40;;;11.25;;
39540;SDS011;25219;52.244;21.006;2023-04-01T21:28:17;8.82;;;6.13;;
39540;SDS011;25219;52.244;21.006;2023-04-01T22:05:12;5.32;;;3.72;;
39540;SDS011;25219;52.244;21.006;2023-04-01T22:07:47;7.47;;;4.53;;
39540;SDS011;25219;52.244;21.006;2023-04-01T22:26:42;5.40;;;3.83;;
39540;SDS011;25219;52.244;21.006;2023-04-01T22:29:11;6.70;;;3.53;;
39540;SDS011;25219;52.244;21.006;2023-04-01T22:42:04;6.68;;;4.30;;
39540;SDS011;25219;52.244;21.006;2023-04-01T22:49:46;7.70;;;3.70;;
39540;SDS011;25219;52.244;21.006;2023-04-01T22:55:13;7.50;;;3.85;;
39540;SDS011;25219;52.244;21.006;2023-04-01T22:57:52;5.72;;;3.53;;
39540;SDS011;25219;52.244;21.006;2023-04-01T23:03:30;7.30;;;4.35;;
39540;SDS011;25219;52.244;21.006;2023-04-01T23:06:00;6.68;;;4.63;;
39540;SDS011;25219;52.244;21.006;2023-04-01T23:10:54;13.48;;;9.05;;
39540;SDS011;25219;52.244;21.006;2023-04-01T23:13:29;7.20;;;4.35;;
39540;SDS011;25219;52.244;21.006;2023-04-01T23:15:56;7.00;;;4.57;;
39540;SDS011;25219;52.244;21.006;2023-04-01T23:18:26;9.48;;;4.70;;
39540;SDS011;25219;52.244;21.006;2023-04-01T23:25:51;6.07;;;3.80;;
39540;SDS011;25219;52.244;21.006;2023-04-01T23:31:02;6.28;;;4.07;;
39540;SDS011;25219;52.244;21.006;2023-04-01T23:33:29;5.95;;;4.00;;
39540;SDS011;25219;52.244;21.006;2023-04-01T23:36:02;7.00;;;3.97;;
39540;SDS011;25219;52.244;21.006;2023-04-01T23:38:33;6.78;;;3.92;;
39540;SDS011;25219;52.244;21.006;2023-04-01T23:40:59;7.72;;;4.13;;
39540;SDS011;25219;52.244;21.006;2023-04-01T23:43:26;6.88;;;3.80;;
39540;SDS011;25219;52.244;21.006;2023-04-01T23:45:53;5.25;;;3.60;;
39540;SDS011;25219;52.244;21.006;2023-04-01T23:48:18;6.32;;;4.18;;
39540;SDS011;25219;52.244;21.006;2023-04-01T23:50:44;6.97;;;4.15;;
39540;SDS011;25219;52.244;21.006;2023-04-01T23:53:17;6.10;;;4.03;;
39540;SDS011;25219;52.244;21.006;2023-04-01T23:55:43;8.23;;;4.30;;
